sensor_id;sensor_type;location;lat;lon;timestamp;pressure;altitude;pressure_sealevel;temperature;humidity
6599;BME280;3335;43.198;27.918;2022-07-17T00:00:41;152947.59;;;22.85;100.00
6599;BME280;3335;43.198;27.918;2022-07-17T00:03:08;152948.84;;;22.85;100.00
6599;BME280;3335;43.198;27.918;2022-07-17T00:05:35;152889.59;;;22.61;100.00
6599;BME280;3335;43.198;27.918;2022-07-17T00:08:04;152932.47;;;22.79;100.00
6599;BME280;3335;43.198;27.918;2022-07-17T00:10:33;152865.66;;;22.52;100.00
6599;BME280;3335;43.198;27.918;2022-07-17T00:13:00;152933.72;;;22.79;100.00
6599;BME280;3335;43.198;27.918;2022-07-17T00:15:27;152929.94;;;22.78;100.00
6599;BME280;3335;43.198;27.918;2022-07-17T00:17:54;152768.69;;;22.13;100.00
6599;BME280;3335;43.198;27.918;2022-07-17T00:20:21;152899.66;;;22.65;100.00
6599;BME280;3335;43.198;27.918;2022-07-17T00:22:50;152914.78;;;22.72;100.00
6599;BME280;3335;43.198;27.918;2022-07-17T00:25:19;152887.06;;;22.60;100.00
6599;BME280;3335;43.198;27.918;2022-07-17T00:27:46;152922.38;;;22.75;100.00
6599;BME280;3335;43.198;27.918;2022-07-17T00:30:13;152918.59;;;22.73;100.00
6599;BME280;3335;43.198;27.918;2022-07-17T00:32:40;152919.84;;;22.74;100.00
6599;BME280;3335;43.198;27.918;2022-07-17T00:35:08;152914.78;;;22.72;100.00
6599;BME280;3335;43.198;27.918;2022-07-17T00:37:38;152859.34;;;22.49;100.00
6599;BME280;3335;43.198;27.918;2022-07-17T00:40:06;152937.50;;;22.81;100.00
6599;BME280;3335;43.198;27.918;2022-07-17T00:42:35;152928.66;;;22.77;100.00
6599;BME280;3335;43.198;27.918;2022-07-17T00:45:02;152934.97;;;22.80;100.00
6599;BME280;3335;43.198;27.918;2022-07-17T00:47:29;152912.31;;;22.71;100.00
6599;BME280;3335;43.198;27.918;2022-07-17T00:49:56;152898.41;;;22.65;100.00
6599;BME280;3335;43.198;27.918;2022-07-17T00:52:23;152892.06;;;22.62;100.00
6599;BME280;3335;43.198;27.918;2022-07-17T00:54:50;152874.47;;;22.55;100.00
6599;BME280;3335;43.198;27.918;2022-07-17T00:57:18;152837.94;;;22.41;100.00
6599;BME280;3335;43.198;27.918;2022-07-17T00:59:47;152860.59;;;22.50;100.00
6599;BME280;3335;43.198;27.918;2022-07-17T01:02:14;152859.34;;;22.49;100.00
6599;BME280;3335;43.198;27.918;2022-07-17T01:04:42;152864.41;;;22.51;100.00
6599;BME280;3335;43.198;27.918;2022-07-17T01:07:09;152870.66;;;22.54;100.00
6599;BME280;3335;43.198;27.918;2022-07-17T01:09:36;152859.34;;;22.49;100.00
6599;BME280;3335;43.198;27.918;2022-07-17T01:12:03;152844.22;;;22.43;100.00
6599;BME280;3335;43.198;27.918;2022-07-17T01:14:32;152834.16;;;22.39;100.00
6599;BME280;3335;43.198;27.918;2022-07-17T01:17:01;152831.63;;;22.38;100.00
6599;BME280;3335;43.198;27.918;2022-07-17T01:19:28;152846.75;;;22.44;100.00
6599;BME280;3335;43.198;27.918;2022-07-17T01:21:56;152829.13;;;22.37;100.00
6599;BME280;3335;43.198;27.918;2022-07-17T01:24:23;152837.94;;;22.41;100.00
6599;BME280;3335;43.198;27.918;2022-07-17T01:26:50;152846.75;;;22.44;100.00
6599;BME280;3335;43.198;27.918;2022-07-17T01:29:17;152836.66;;;22.40;100.00
6599;BME280;3335;43.198;27.918;2022-07-17T01:31:44;152836.66;;;22.40;100.00
6599;BME280;3335;43.198;27.918;2022-07-17T01:34:12;152832.88;;;22.39;100.00
6599;BME280;3335;43.198;27.918;2022-07-17T01:36:39;152831.63;;;22.38;100.00
6599;BME280;3335;43.198;27.918;2022-07-17T01:39:08;152826.59;;;22.36;100.00
6599;BME280;3335;43.198;27.918;2022-07-17T01:41:35;152821.53;;;22.34;100.00
6599;BME280;3335;43.198;27.918;2022-07-17T01:44:02;152807.72;;;22.29;100.00
6599;BME280;3335;43.198;27.918;2022-07-17T01:46:30;152791.34;;;22.22;100.00
6599;BME280;3335;43.198;27.918;2022-07-17T01:48:57;152771.22;;;22.14;100.00
6599;BME280;3335;43.198;27.918;2022-07-17T01:51:26;152803.94;;;22.27;100.00
6599;BME280;3335;43.198;27.918;2022-07-17T01:53:53;152613.78;;;21.51;100.00
6599;BME280;3335;43.198;27.918;2022-07-17T01:56:21;152798.88;;;22.25;100.00
6599;BME280;3335;43.198;27.918;2022-07-17T01:58:48;152797.63;;;22.24;100.00
6599;BME280;3335;43.198;27.918;2022-07-17T02:01:15;152801.41;;;22.26;100.00
6599;BME280;3335;43.198;27.918;2022-07-17T02:03:42;152802.66;;;22.27;100.00
6599;BME280;3335;43.198;27.918;2022-07-17T02:06:09;152797.63;;;22.24;100.00
6599;BME280;3335;43.198;27.918;2022-07-17T02:08:36;152778.75;;;22.17;100.00
6599;BME280;3335;43.198;27.918;2022-07-17T02:11:03;152766.16;;;22.12;100.00
6599;BME280;3335;43.198;27.918;2022-07-17T02:13:31;152758.63;;;22.09;100.00
6599;BME280;3335;43.198;27.918;2022-07-17T02:15:58;152753.56;;;22.07;100.00
6599;BME280;3335;43.198;27.918;2022-07-17T02:18:25;152743.50;;;22.03;100.00
6599;BME280;3335;43.198;27.918;2022-07-17T02:20:52;152746.00;;;22.04;100.00
6599;BME280;3335;43.198;27.918;2022-07-17T02:23:19;152735.94;;;22.00;100.00
6599;BME280;3335;43.198;27.918;2022-07-17T02:25:46;152720.81;;;21.94;100.00
6599;BME280;3335;43.198;27.918;2022-07-17T02:28:13;152733.44;;;21.99;100.00
6599;BME280;3335;43.198;27.918;2022-07-17T02:30:41;152718.25;;;21.93;100.00
6599;BME280;3335;43.198;27.918;2022-07-17T02:33:08;152710.72;;;21.90;100.00
6599;BME280;3335;43.198;27.918;2022-07-17T02:35:35;152710.72;;;21.90;100.00
6599;BME280;3335;43.198;27.918;2022-07-17T02:38:02;152698.13;;;21.85;100.00
6599;BME280;3335;43.198;27.918;2022-07-17T02:40:29;152680.47;;;21.77;100.00
6599;BME280;3335;43.198;27.918;2022-07-17T02:42:56;152667.88;;;21.72;100.00
6599;BME280;3335;43.198;27.918;2022-07-17T02:45:23;152685.53;;;21.79;100.00
6599;BME280;3335;43.198;27.918;2022-07-17T02:47:53;152670.41;;;21.73;100.00
6599;BME280;3335;43.198;27.918;2022-07-17T02:50:20;152693.06;;;21.82;100.00
6599;BME280;3335;43.198;27.918;2022-07-17T02:52:48;152689.31;;;21.81;100.00
6599;BME280;3335;43.198;27.918;2022-07-17T02:55:16;152685.53;;;21.79;100.00
6599;BME280;3335;43.198;27.918;2022-07-17T02:57:43;152672.94;;;21.74;100.00
6599;BME280;3335;43.198;27.918;2022-07-17T03:00:14;152679.22;;;21.77;100.00
6599;BME280;3335;43.198;27.918;2022-07-17T03:02:42;152686.78;;;21.80;100.00
6599;BME280;3335;43.198;27.918;2022-07-17T03:05:11;152544.56;;;21.23;100.00
6599;BME280;3335;43.198;27.918;2022-07-17T03:07:38;152675.47;;;21.75;100.00
6599;BME280;3335;43.198;27.918;2022-07-17T03:10:06;152688.06;;;21.80;100.00
6599;BME280;3335;43.198;27.918;2022-07-17T03:12:33;152680.47;;;21.77;100.00
6599;BME280;3335;43.198;27.918;2022-07-17T03:15:00;152675.47;;;21.75;100.00
6599;BME280;3335;43.198;27.918;2022-07-17T03:17:27;152674.19;;;21.75;100.00
6599;BME280;3335;43.198;27.918;2022-07-17T03:19:54;152675.47;;;21.75;100.00
6599;BME280;3335;43.198;27.918;2022-07-17T03:22:22;152665.41;;;21.71;100.00
6599;BME280;3335;43.198;27.918;2022-07-17T03:24:49;152669.16;;;21.73;100.00
6599;BME280;3335;43.198;27.918;2022-07-17T03:27:16;152456.41;;;20.87;100.00
6599;BME280;3335;43.198;27.918;2022-07-17T03:29:44;152650.28;;;21.65;100.00
6599;BME280;3335;43.198;27.918;2022-07-17T03:32:11;152672.94;;;21.74;100.00
6599;BME280;3335;43.198;27.918;2022-07-17T03:34:38;152642.69;;;21.62;100.00
6599;BME280;3335;43.198;27.918;2022-07-17T03:37:05;152662.88;;;21.70;100.00
6599;BME280;3335;43.198;27.918;2022-07-17T03:39:34;152655.28;;;21.67;100.00
6599;BME280;3335;43.198;27.918;2022-07-17T03:42:01;152513.00;;;21.10;100.00
6599;BME280;3335;43.198;27.918;2022-07-17T03:44:28;152675.47;;;21.75;100.00
6599;BME280;3335;43.198;27.918;2022-07-17T03:46:55;152677.94;;;21.76;100.00
6599;BME280;3335;43.198;27.918;2022-07-17T03:49:22;152696.84;;;21.84;100.00
6599;BME280;3335;43.198;27.918;2022-07-17T03:51:50;152705.66;;;21.88;100.00
6599;BME280;3335;43.198;27.918;2022-07-17T03:54:17;152710.72;;;21.90;100.00
6599;BME280;3335;43.198;27.918;2022-07-17T03:56:45;152735.94;;;22.00;100.00
6599;BME280;3335;43.198;27.918;2022-07-17T03:59:12;152708.19;;;21.89;100.00
6599;BME280;3335;43.198;27.918;2022-07-17T04:01:39;152763.63;;;22.11;100.00
6599;BME280;3335;43.198;27.918;2022-07-17T04:04:06;152773.69;;;22.15;100.00
6599;BME280;3335;43.198;27.918;2022-07-17T04:06:33;152801.41;;;22.26;100.00
6599;BME280;3335;43.198;27.918;2022-07-17T04:09:00;152817.81;;;22.33;100.00
6599;BME280;3335;43.198;27.918;2022-07-17T04:11:27;152825.34;;;22.36;100.00
6599;BME280;3335;43.198;27.918;2022-07-17T04:13:55;152841.72;;;22.42;100.00
6599;BME280;3335;43.198;27.918;2022-07-17T04:16:22;152866.88;;;22.52;100.00
6599;BME280;3335;43.198;27.918;2022-07-17T04:18:50;152856.81;;;22.48;100.00
6599;BME280;3335;43.198;27.918;2022-07-17T04:21:19;152892.06;;;22.62;100.00
6599;BME280;3335;43.198;27.918;2022-07-17T04:23:46;152945.06;;;22.84;100.00
6599;BME280;3335;43.198;27.918;2022-07-17T04:26:13;152960.19;;;22.90;100.00
6599;BME280;3335;43.198;27.918;2022-07-17T04:28:40;152977.81;;;22.97;100.00
6599;BME280;3335;43.198;27.918;2022-07-17T04:31:08;152972.78;;;22.95;100.00
6599;BME280;3335;43.198;27.918;2022-07-17T04:33:35;152997.94;;;23.05;100.00
6599;BME280;3335;43.198;27.918;2022-07-17T04:36:03;153008.06;;;23.09;100.00
6599;BME280;3335;43.198;27.918;2022-07-17T04:38:30;153013.06;;;23.11;100.00
6599;BME280;3335;43.198;27.918;2022-07-17T04:40:57;152982.84;;;22.99;100.00
6599;BME280;3335;43.198;27.918;2022-07-17T04:43:23;153045.81;;;23.24;100.00
6599;BME280;3335;43.198;27.918;2022-07-17T04:45:50;153071.03;;;23.34;100.00
6599;BME280;3335;43.198;27.918;2022-07-17T04:48:19;153103.84;;;23.47;100.00
6599;BME280;3335;43.198;27.918;2022-07-17T04:50:46;153116.44;;;23.52;100.00
6599;BME280;3335;43.198;27.918;2022-07-17T04:53:13;153137.91;;;23.61;100.00
6599;BME280;3335;43.198;27.918;2022-07-17T04:55:39;153166.88;;;23.73;100.00
6599;BME280;3335;43.198;27.918;2022-07-17T04:58:06;153199.63;;;23.86;100.00
6599;BME280;3335;43.198;27.918;2022-07-17T05:00:33;153227.38;;;23.97;100.00
6599;BME280;3335;43.198;27.918;2022-07-17T05:03:00;153242.53;;;24.03;100.00
6599;BME280;3335;43.198;27.918;2022-07-17T05:05:29;153279.16;;;24.18;100.00
6599;BME280;3335;43.198;27.918;2022-07-17T05:07:56;153310.66;;;24.30;100.00
6599;BME280;3335;43.198;27.918;2022-07-17T05:10:22;153332.06;;;24.39;100.00
6599;BME280;3335;43.198;27.918;2022-07-17T05:12:49;153348.50;;;24.46;100.00
6599;BME280;3335;43.198;27.918;2022-07-17T05:15:16;153358.56;;;24.50;100.00
6599;BME280;3335;43.198;27.918;2022-07-17T05:17:43;153386.31;;;24.61;100.00
6599;BME280;3335;43.198;27.918;2022-07-17T05:20:10;153348.50;;;24.46;100.00
6599;BME280;3335;43.198;27.918;2022-07-17T05:22:39;153416.56;;;24.73;100.00
6599;BME280;3335;43.198;27.918;2022-07-17T05:25:07;153361.09;;;24.51;100.00
6599;BME280;3335;43.198;27.918;2022-07-17T05:27:34;153454.47;;;24.88;100.00
6599;BME280;3335;43.198;27.918;2022-07-17T05:30:01;153345.94;;;24.45;100.00
6599;BME280;3335;43.198;27.918;2022-07-17T05:32:28;153491.06;;;25.03;100.00
6599;BME280;3335;43.198;27.918;2022-07-17T05:34:54;153497.34;;;25.05;100.00
6599;BME280;3335;43.198;27.918;2022-07-17T05:37:21;153502.41;;;25.07;100.00
6599;BME280;3335;43.198;27.918;2022-07-17T05:39:50;153540.25;;;25.22;100.00
6599;BME280;3335;43.198;27.918;2022-07-17T05:42:16;153552.88;;;25.27;100.00
6599;BME280;3335;43.198;27.918;2022-07-17T05:44:43;153580.63;;;25.39;100.00
6599;BME280;3335;43.198;27.918;2022-07-17T05:47:10;153595.75;;;25.45;100.00
6599;BME280;3335;43.198;27.918;2022-07-17T05:49:37;153383.78;;;24.60;100.00
6599;BME280;3335;43.198;27.918;2022-07-17T05:52:04;153645.03;;;25.64;100.00
6599;BME280;3335;43.198;27.918;2022-07-17T05:54:32;153666.47;;;25.73;100.00
6599;BME280;3335;43.198;27.918;2022-07-17T05:57:00;153598.28;;;25.46;100.00
6599;BME280;3335;43.198;27.918;2022-07-17T05:59:27;153719.50;;;25.94;100.00
6599;BME280;3335;43.198;27.918;2022-07-17T06:01:54;153742.22;;;26.03;100.00
6599;BME280;3335;43.198;27.918;2022-07-17T06:04:21;153734.63;;;26.00;100.00
6599;BME280;3335;43.198;27.918;2022-07-17T06:06:48;153764.94;;;26.12;100.00
6599;BME280;3335;43.198;27.918;2022-07-17T06:09:16;153800.34;;;26.27;100.00
6599;BME280;3335;43.198;27.918;2022-07-17T06:11:43;153815.44;;;26.33;100.00
6599;BME280;3335;43.198;27.918;2022-07-17T06:14:11;153830.59;;;26.39;100.00
6599;BME280;3335;43.198;27.918;2022-07-17T06:16:38;153845.78;;;26.45;100.00
6599;BME280;3335;43.198;27.918;2022-07-17T06:19:05;153867.22;;;26.53;100.00
6599;BME280;3335;43.198;27.918;2022-07-17T06:21:32;153868.50;;;26.54;100.00
6599;BME280;3335;43.198;27.918;2022-07-17T06:23:59;153879.84;;;26.59;100.00
6599;BME280;3335;43.198;27.918;2022-07-17T06:26:25;153901.31;;;26.67;100.00
6599;BME280;3335;43.198;27.918;2022-07-17T06:28:52;153906.38;;;26.69;100.00
6599;BME280;3335;43.198;27.918;2022-07-17T06:31:21;153934.13;;;26.80;100.00
6599;BME280;3335;43.198;27.918;2022-07-17T06:33:48;153944.28;;;26.84;100.00
6599;BME280;3335;43.198;27.918;2022-07-17T06:36:15;153951.88;;;26.87;100.00
6599;BME280;3335;43.198;27.918;2022-07-17T06:38:42;153963.25;;;26.92;100.00
6599;BME280;3335;43.198;27.918;2022-07-17T06:41:09;153974.63;;;26.96;100.00
6599;BME280;3335;43.198;27.918;2022-07-17T06:43:36;153974.63;;;26.96;100.00
6599;BME280;3335;43.198;27.918;2022-07-17T06:46:03;154007.44;;;27.10;100.00
6599;BME280;3335;43.198;27.918;2022-07-17T06:48:32;154012.50;;;27.12;97.94
6599;BME280;3335;43.198;27.918;2022-07-17T06:50:59;154030.16;;;27.19;100.00
6599;BME280;3335;43.198;27.918;2022-07-17T06:53:25;154040.31;;;27.23;99.21
6599;BME280;3335;43.198;27.918;2022-07-17T06:55:52;154060.50;;;27.31;99.75
6599;BME280;3335;43.198;27.918;2022-07-17T06:58:19;154095.88;;;27.45;96.77
6599;BME280;3335;43.198;27.918;2022-07-17T07:00:46;154109.84;;;27.51;94.41
6599;BME280;3335;43.198;27.918;2022-07-17T07:03:13;154156.56;;;27.69;86.89
6599;BME280;3335;43.198;27.918;2022-07-17T07:05:42;154185.59;;;27.81;84.39
6599;BME280;3335;43.198;27.918;2022-07-17T07:08:09;154215.97;;;27.93;83.97
6599;BME280;3335;43.198;27.918;2022-07-17T07:10:36;154207.06;;;27.90;84.27
6599;BME280;3335;43.198;27.918;2022-07-17T07:13:03;154257.63;;;28.10;100.00
6599;BME280;3335;43.198;27.918;2022-07-17T07:15:30;154266.53;;;28.13;100.00
6599;BME280;3335;43.198;27.918;2022-07-17T07:17:57;154280.44;;;28.19;100.00
6599;BME280;3335;43.198;27.918;2022-07-17T07:20:24;154277.88;;;28.18;95.21
6599;BME280;3335;43.198;27.918;2022-07-17T07:22:52;154293.06;;;28.24;97.73
6599;BME280;3335;43.198;27.918;2022-07-17T07:25:20;154298.16;;;28.26;93.15
6599;BME280;3335;43.198;27.918;2022-07-17T07:27:47;154274.13;;;28.16;81.15
6599;BME280;3335;43.198;27.918;2022-07-17T07:30:14;154270.31;;;28.15;88.12
6599;BME280;3335;43.198;27.918;2022-07-17T07:32:41;154296.88;;;28.25;90.94
6599;BME280;3335;43.198;27.918;2022-07-17T07:35:08;154164.13;;;27.72;100.00
6599;BME280;3335;43.198;27.918;2022-07-17T07:37:36;154324.69;;;28.37;100.00
6599;BME280;3335;43.198;27.918;2022-07-17T07:40:06;154299.41;;;28.26;100.00
6599;BME280;3335;43.198;27.918;2022-07-17T07:42:33;154277.88;;;28.18;100.00
6599;BME280;3335;43.198;27.918;2022-07-17T07:45:00;154305.72;;;28.29;100.00
6599;BME280;3335;43.198;27.918;2022-07-17T07:47:27;154331.00;;;28.39;100.00
6599;BME280;3335;43.198;27.918;2022-07-17T07:49:54;154306.97;;;28.30;100.00
6599;BME280;3335;43.198;27.918;2022-07-17T07:52:21;154318.34;;;28.34;100.00
6599;BME280;3335;43.198;27.918;2022-07-17T07:54:49;154342.38;;;28.44;100.00
6599;BME280;3335;43.198;27.918;2022-07-17T07:57:17;154368.94;;;28.54;100.00
6599;BME280;3335;43.198;27.918;2022-07-17T07:59:44;154400.50;;;28.67;100.00
6599;BME280;3335;43.198;27.918;2022-07-17T08:02:11;154428.38;;;28.78;100.00
6599;BME280;3335;43.198;27.918;2022-07-17T08:04:38;154434.69;;;28.81;100.00
6599;BME280;3335;43.198;27.918;2022-07-17T08:07:04;154461.25;;;28.91;100.00
6599;BME280;3335;43.198;27.918;2022-07-17T08:09:31;154485.28;;;29.01;100.00
6599;BME280;3335;43.198;27.918;2022-07-17T08:11:58;154495.38;;;29.05;100.00
6599;BME280;3335;43.198;27.918;2022-07-17T08:14:27;154516.88;;;29.13;98.28
6599;BME280;3335;43.198;27.918;2022-07-17T08:16:53;154528.25;;;29.18;93.86
6599;BME280;3335;43.198;27.918;2022-07-17T08:19:20;154523.22;;;29.16;95.92
6599;BME280;3335;43.198;27.918;2022-07-17T08:21:47;154545.97;;;29.25;98.37
6599;BME280;3335;43.198;27.918;2022-07-17T08:24:14;154528.25;;;29.18;97.16
6599;BME280;3335;43.198;27.918;2022-07-17T08:26:42;154508.03;;;29.10;98.55
6599;BME280;3335;43.198;27.918;2022-07-17T08:29:08;154496.66;;;29.05;100.00
6599;BME280;3335;43.198;27.918;2022-07-17T08:31:37;154480.19;;;28.99;100.00
6599;BME280;3335;43.198;27.918;2022-07-17T08:34:04;154376.50;;;28.57;97.05
6599;BME280;3335;43.198;27.918;2022-07-17T08:36:31;154370.19;;;28.55;96.72
6599;BME280;3335;43.198;27.918;2022-07-17T08:38:58;154353.75;;;28.48;98.43
6599;BME280;3335;43.198;27.918;2022-07-17T08:41:26;154339.84;;;28.43;95.73
6599;BME280;3335;43.198;27.918;2022-07-17T08:43:54;154324.69;;;28.37;94.40
6599;BME280;3335;43.198;27.918;2022-07-17T08:46:23;154351.19;;;28.47;93.87
6599;BME280;3335;43.198;27.918;2022-07-17T08:48:56;154386.59;;;28.61;97.36
6599;BME280;3335;43.198;27.918;2022-07-17T08:51:25;154399.25;;;28.66;100.00
6599;BME280;3335;43.198;27.918;2022-07-17T08:53:53;154336.06;;;28.41;97.45
6599;BME280;3335;43.198;27.918;2022-07-17T08:56:20;154356.28;;;28.49;97.72
6599;BME280;3335;43.198;27.918;2022-07-17T08:58:47;154341.09;;;28.43;99.61
6599;BME280;3335;43.198;27.918;2022-07-17T09:01:15;154323.44;;;28.36;100.00
6599;BME280;3335;43.198;27.918;2022-07-17T09:03:55;154343.63;;;28.44;100.00
6599;BME280;3335;43.198;27.918;2022-07-17T09:06:23;154328.47;;;28.38;100.00
6599;BME280;3335;43.198;27.918;2022-07-17T09:09:03;154310.78;;;28.31;100.00
6599;BME280;3335;43.198;27.918;2022-07-17T09:11:41;154332.25;;;28.40;100.00
6599;BME280;3335;43.198;27.918;2022-07-17T09:14:09;154317.09;;;28.34;95.90
6599;BME280;3335;43.198;27.918;2022-07-17T09:16:47;154320.91;;;28.35;88.83
6599;BME280;3335;43.198;27.918;2022-07-17T09:19:28;154332.25;;;28.40;89.16
6599;BME280;3335;43.198;27.918;2022-07-17T09:22:06;154332.25;;;28.40;81.49
6599;BME280;3335;43.198;27.918;2022-07-17T09:24:44;154331.00;;;28.39;81.67
6599;BME280;3335;43.198;27.918;2022-07-17T09:27:13;154349.94;;;28.47;90.51
6599;BME280;3335;43.198;27.918;2022-07-17T09:29:54;154300.69;;;28.27;95.91
6599;BME280;3335;43.198;27.918;2022-07-17T09:32:24;154304.44;;;28.28;100.00
6599;BME280;3335;43.198;27.918;2022-07-17T09:34:53;154324.69;;;28.37;94.64
6599;BME280;3335;43.198;27.918;2022-07-17T09:37:22;154341.09;;;28.43;88.47
6599;BME280;3335;43.198;27.918;2022-07-17T09:39:49;154389.13;;;28.62;83.78
6599;BME280;3335;43.198;27.918;2022-07-17T09:42:24;154428.38;;;28.78;86.62
6599;BME280;3335;43.198;27.918;2022-07-17T09:44:56;154542.16;;;29.24;91.60
6599;BME280;3335;43.198;27.918;2022-07-17T09:47:23;154549.78;;;29.27;82.15
6599;BME280;3335;43.198;27.918;2022-07-17T09:49:52;154566.25;;;29.33;89.57
6599;BME280;3335;43.198;27.918;2022-07-17T09:52:21;154668.72;;;29.74;84.16
6599;BME280;3335;43.198;27.918;2022-07-17T09:54:51;154756.00;;;30.09;78.22
6599;BME280;3335;43.198;27.918;2022-07-17T09:57:19;154799.06;;;30.26;69.39
6599;BME280;3335;43.198;27.918;2022-07-17T09:59:47;154769.94;;;30.15;56.07
6599;BME280;3335;43.198;27.918;2022-07-17T10:02:16;154745.91;;;30.05;57.39
6599;BME280;3335;43.198;27.918;2022-07-17T10:04:45;154735.78;;;30.01;61.75
6599;BME280;3335;43.198;27.918;2022-07-17T10:07:13;154730.72;;;29.99;65.05
6599;BME280;3335;43.198;27.918;2022-07-17T10:09:41;154710.47;;;29.91;78.52
6599;BME280;3335;43.198;27.918;2022-07-17T10:12:08;154763.63;;;30.12;79.61
6599;BME280;3335;43.198;27.918;2022-07-17T10:14:35;154811.72;;;30.31;85.83
6599;BME280;3335;43.198;27.918;2022-07-17T10:17:08;154836.97;;;30.41;78.68
6599;BME280;3335;43.198;27.918;2022-07-17T10:19:44;154836.97;;;30.41;75.22
6599;BME280;3335;43.198;27.918;2022-07-17T10:22:14;154847.19;;;30.46;76.57
6599;BME280;3335;43.198;27.918;2022-07-17T10:24:45;154831.94;;;30.39;81.08
6599;BME280;3335;43.198;27.918;2022-07-17T10:27:19;154850.97;;;30.47;82.87
6599;BME280;3335;43.198;27.918;2022-07-17T10:29:46;154915.53;;;30.73;81.76
6599;BME280;3335;43.198;27.918;2022-07-17T10:32:17;154892.75;;;30.64;77.29
6599;BME280;3335;43.198;27.918;2022-07-17T10:34:45;154838.25;;;30.42;65.06
6599;BME280;3335;43.198;27.918;2022-07-17T10:37:22;154921.81;;;30.75;66.87
6599;BME280;3335;43.198;27.918;2022-07-17T10:39:57;154977.53;;;30.98;70.03
6599;BME280;3335;43.198;27.918;2022-07-17T10:42:42;155044.66;;;31.24;68.30
6599;BME280;3335;43.198;27.918;2022-07-17T10:45:11;155080.09;;;31.39;60.58
6599;BME280;3335;43.198;27.918;2022-07-17T10:47:46;155090.22;;;31.43;61.61
6599;BME280;3335;43.198;27.918;2022-07-17T10:50:15;155097.84;;;31.46;65.03
6599;BME280;3335;43.198;27.918;2022-07-17T10:52:44;155123.19;;;31.56;66.39
6599;BME280;3335;43.198;27.918;2022-07-17T10:55:18;155047.22;;;31.25;60.36
6599;BME280;3335;43.198;27.918;2022-07-17T10:57:46;155001.66;;;31.07;51.68
6599;BME280;3335;43.198;27.918;2022-07-17T11:00:14;154928.19;;;30.78;63.88
6599;BME280;3335;43.198;27.918;2022-07-17T11:02:42;154859.84;;;30.51;70.97
6599;BME280;3335;43.198;27.918;2022-07-17T11:05:10;154710.47;;;29.91;64.87
6599;BME280;3335;43.198;27.918;2022-07-17T11:07:50;154687.66;;;29.82;66.79
6599;BME280;3335;43.198;27.918;2022-07-17T11:10:17;154685.13;;;29.81;66.43
6599;BME280;3335;43.198;27.918;2022-07-17T11:12:44;154690.22;;;29.83;60.72
6599;BME280;3335;43.198;27.918;2022-07-17T11:15:11;154723.13;;;29.96;60.94
6599;BME280;3335;43.198;27.918;2022-07-17T11:17:44;154680.09;;;29.79;66.99
6599;BME280;3335;43.198;27.918;2022-07-17T11:20:11;154657.34;;;29.70;78.96
6599;BME280;3335;43.198;27.918;2022-07-17T11:22:38;154589.00;;;29.42;100.00
6599;BME280;3335;43.198;27.918;2022-07-17T11:25:07;154773.75;;;30.16;100.00
6599;BME280;3335;43.198;27.918;2022-07-17T11:27:35;154783.88;;;30.20;100.00
6599;BME280;3335;43.198;27.918;2022-07-17T11:30:09;154814.22;;;30.32;100.00
6599;BME280;3335;43.198;27.918;2022-07-17T11:32:39;154777.50;;;30.18;100.00
6599;BME280;3335;43.198;27.918;2022-07-17T11:35:18;154695.25;;;29.85;100.00
6599;BME280;3335;43.198;27.918;2022-07-17T11:37:47;154668.72;;;29.74;100.00
6599;BME280;3335;43.198;27.918;2022-07-17T11:40:15;154616.84;;;29.53;100.00
6599;BME280;3335;43.198;27.918;2022-07-17T11:42:43;154710.47;;;29.91;100.00
6599;BME280;3335;43.198;27.918;2022-07-17T11:45:10;154742.09;;;30.04;100.00
6599;BME280;3335;43.198;27.918;2022-07-17T11:47:37;154680.09;;;29.79;100.00
6599;BME280;3335;43.198;27.918;2022-07-17T11:50:06;154599.09;;;29.46;100.00
6599;BME280;3335;43.198;27.918;2022-07-17T11:52:40;154629.50;;;29.59;100.00
6599;BME280;3335;43.198;27.918;2022-07-17T11:55:08;154573.84;;;29.36;100.00
6599;BME280;3335;43.198;27.918;2022-07-17T11:57:44;154508.03;;;29.10;100.00
6599;BME280;3335;43.198;27.918;2022-07-17T12:00:13;154690.22;;;29.83;100.00
6599;BME280;3335;43.198;27.918;2022-07-17T12:02:40;154709.22;;;29.90;100.00
6599;BME280;3335;43.198;27.918;2022-07-17T12:05:08;154711.75;;;29.91;100.00
6599;BME280;3335;43.198;27.918;2022-07-17T12:07:39;154796.53;;;30.25;100.00
6599;BME280;3335;43.198;27.918;2022-07-17T12:10:12;154867.44;;;30.54;100.00
6599;BME280;3335;43.198;27.918;2022-07-17T12:12:54;154804.09;;;30.28;100.00
6599;BME280;3335;43.198;27.918;2022-07-17T12:15:33;154875.00;;;30.57;100.00
6599;BME280;3335;43.198;27.918;2022-07-17T12:18:01;154862.34;;;30.52;100.00
6599;BME280;3335;43.198;27.918;2022-07-17T12:20:41;154768.66;;;30.14;100.00
6599;BME280;3335;43.198;27.918;2022-07-17T12:23:08;154676.28;;;29.77;100.00
6599;BME280;3335;43.198;27.918;2022-07-17T12:25:35;154656.06;;;29.69;100.00
6599;BME280;3335;43.198;27.918;2022-07-17T12:28:03;154590.28;;;29.43;100.00
6599;BME280;3335;43.198;27.918;2022-07-17T12:30:31;154606.72;;;29.49;100.00
6599;BME280;3335;43.198;27.918;2022-07-17T12:32:58;154576.34;;;29.37;100.00
6599;BME280;3335;43.198;27.918;2022-07-17T12:35:25;154596.63;;;29.45;100.00
6599;BME280;3335;43.198;27.918;2022-07-17T12:37:52;154677.56;;;29.78;100.00
6599;BME280;3335;43.198;27.918;2022-07-17T12:40:19;154748.44;;;30.06;100.00
6599;BME280;3335;43.198;27.918;2022-07-17T12:42:47;154761.09;;;30.11;100.00
6599;BME280;3335;43.198;27.918;2022-07-17T12:45:15;154795.25;;;30.25;100.00
6599;BME280;3335;43.198;27.918;2022-07-17T12:47:42;154757.28;;;30.10;100.00
6599;BME280;3335;43.198;27.918;2022-07-17T12:50:09;154629.50;;;29.59;100.00
6599;BME280;3335;43.198;27.918;2022-07-17T12:52:36;154594.06;;;29.44;100.00
6599;BME280;3335;43.198;27.918;2022-07-17T12:55:03;154538.41;;;29.22;100.00
6599;BME280;3335;43.198;27.918;2022-07-17T12:57:31;154487.81;;;29.02;100.00